sensor_id;sensor_type;location;lat;lon;timestamp;pressure;altitude;pressure_sealevel;temperature;humidity
54248;BME280;40161;39.768;2.722;2023-04-26T06:43:25;101197.88;;;18.52;85.58
54248;BME280;40161;39.768;2.722;2023-04-26T06:45:52;101200.69;;;18.48;86.64
54248;BME280;40161;39.768;2.722;2023-04-26T06:48:17;101206.50;;;18.61;85.20
54248;BME280;40161;39.768;2.722;2023-04-26T06:50:43;101210.44;;;18.67;85.37
54248;BME280;40161;39.768;2.722;2023-04-26T06:53:08;101215.56;;;18.76;85.07
54248;BME280;40161;39.768;2.722;2023-04-26T06:55:34;101198.91;;;18.68;84.65
54248;BME280;40161;39.768;2.722;2023-04-26T06:57:59;101163.31;;;18.53;84.38
54248;BME280;40161;39.768;2.722;2023-04-26T07:00:25;101192.94;;;18.70;83.80
54248;BME280;40161;39.768;2.722;2023-04-26T07:02:50;101214.69;;;18.86;83.22
54248;BME280;40161;39.768;2.722;2023-04-26T07:05:16;101204.41;;;18.79;81.82
54248;BME280;40161;39.768;2.722;2023-04-26T07:07:42;101202.47;;;18.76;81.07
54248;BME280;40161;39.768;2.722;2023-04-26T07:10:08;101214.25;;;18.87;80.16
54248;BME280;40161;39.768;2.722;2023-04-26T07:12:33;101211.81;;;18.96;79.31
54248;BME280;40161;39.768;2.722;2023-04-26T07:14:59;101218.47;;;19.03;79.18
54248;BME280;40161;39.768;2.722;2023-04-26T07:17:26;101233.09;;;19.14;79.33
54248;BME280;40161;39.768;2.722;2023-04-26T07:19:51;101173.81;;;18.83;79.07
54248;BME280;40161;39.768;2.722;2023-04-26T07:22:17;101227.53;;;19.14;79.05
54248;BME280;40161;39.768;2.722;2023-04-26T07:24:42;101181.28;;;18.89;79.00
54248;BME280;40161;39.768;2.722;2023-04-26T07:27:08;101253.56;;;19.34;80.50
54248;BME280;40161;39.768;2.722;2023-04-26T07:29:34;101244.84;;;19.29;81.51
54248;BME280;40161;39.768;2.722;2023-04-26T07:31:59;101241.25;;;19.32;80.31
54248;BME280;40161;39.768;2.722;2023-04-26T07:34:25;101196.53;;;19.12;82.42
54248;BME280;40161;39.768;2.722;2023-04-26T07:36:51;101223.38;;;19.29;82.21
54248;BME280;40161;39.768;2.722;2023-04-26T07:39:16;101250.22;;;19.47;83.62
54248;BME280;40161;39.768;2.722;2023-04-26T07:41:42;101241.53;;;19.44;84.15
54248;BME280;40161;39.768;2.722;2023-04-26T07:44:09;101205.16;;;19.25;85.19
54248;BME280;40161;39.768;2.722;2023-04-26T07:46:34;101235.13;;;19.44;85.70
54248;BME280;40161;39.768;2.722;2023-04-26T07:49:00;101247.28;;;19.61;87.34
54248;BME280;40161;39.768;2.722;2023-04-26T07:51:26;101259.63;;;19.63;88.97
54248;BME280;40161;39.768;2.722;2023-04-26T07:53:51;101252.88;;;19.57;88.02
54248;BME280;40161;39.768;2.722;2023-04-26T07:56:17;101233.56;;;19.43;88.07
54248;BME280;40161;39.768;2.722;2023-04-26T07:58:43;101201.59;;;19.24;88.62
54248;BME280;40161;39.768;2.722;2023-04-26T08:01:08;101237.44;;;19.53;89.51
54248;BME280;40161;39.768;2.722;2023-04-26T08:03:36;101242.53;;;19.58;88.66
54248;BME280;40161;39.768;2.722;2023-04-26T08:06:01;101241.00;;;19.53;87.89
54248;BME280;40161;39.768;2.722;2023-04-26T08:08:27;101244.09;;;19.62;88.75
54248;BME280;40161;39.768;2.722;2023-04-26T08:10:54;101259.91;;;19.73;88.08
54248;BME280;40161;39.768;2.722;2023-04-26T08:13:20;101260.28;;;19.75;88.41
54248;BME280;40161;39.768;2.722;2023-04-26T08:15:46;101257.13;;;19.73;89.48
54248;BME280;40161;39.768;2.722;2023-04-26T08:18:12;101253.59;;;19.68;89.90
54248;BME280;40161;39.768;2.722;2023-04-26T08:20:38;101269.00;;;19.77;89.27
54248;BME280;40161;39.768;2.722;2023-04-26T08:23:04;101283.75;;;19.74;88.42
54248;BME280;40161;39.768;2.722;2023-04-26T08:25:30;101257.22;;;19.65;89.72
54248;BME280;40161;39.768;2.722;2023-04-26T08:27:59;101242.75;;;19.40;90.32
54248;BME280;40161;39.768;2.722;2023-04-26T08:30:25;101294.59;;;19.64;89.69
54248;BME280;40161;39.768;2.722;2023-04-26T08:32:50;101301.38;;;19.63;90.28
54248;BME280;40161;39.768;2.722;2023-04-26T08:35:16;101312.47;;;19.67;90.29
54248;BME280;40161;39.768;2.722;2023-04-26T08:37:42;101289.84;;;19.58;89.46
54248;BME280;40161;39.768;2.722;2023-04-26T08:40:08;101292.28;;;19.56;88.67
54248;BME280;40161;39.768;2.722;2023-04-26T08:42:38;101303.75;;;19.65;88.70
54248;BME280;40161;39.768;2.722;2023-04-26T08:45:06;101306.06;;;19.70;88.12
54248;BME280;40161;39.768;2.722;2023-04-26T08:49:59;101281.81;;;19.71;86.73
54248;BME280;40161;39.768;2.722;2023-04-26T08:52:29;101278.16;;;19.77;86.98
54248;BME280;40161;39.768;2.722;2023-04-26T08:54:56;101257.97;;;19.70;85.68
54248;BME280;40161;39.768;2.722;2023-04-26T08:57:25;101289.59;;;19.86;85.80
54248;BME280;40161;39.768;2.722;2023-04-26T08:59:51;101288.31;;;19.91;84.96
54248;BME280;40161;39.768;2.722;2023-04-26T09:02:19;101297.75;;;20.01;85.12
54248;BME280;40161;39.768;2.722;2023-04-26T09:04:46;101300.34;;;20.15;84.46
54248;BME280;40161;39.768;2.722;2023-04-26T09:07:19;101230.84;;;19.74;83.54
54248;BME280;40161;39.768;2.722;2023-04-26T09:09:48;101291.56;;;20.20;83.29
54248;BME280;40161;39.768;2.722;2023-04-26T09:12:18;101312.19;;;20.23;83.59
54248;BME280;40161;39.768;2.722;2023-04-26T09:14:46;101297.06;;;20.24;82.54
54248;BME280;40161;39.768;2.722;2023-04-26T09:17:25;101310.81;;;20.38;82.45
54248;BME280;40161;39.768;2.722;2023-04-26T09:19:51;101295.25;;;20.41;82.26
54248;BME280;40161;39.768;2.722;2023-04-26T09:22:33;101309.44;;;20.50;80.80
54248;BME280;40161;39.768;2.722;2023-04-26T09:25:01;101312.63;;;20.52;79.81
54248;BME280;40161;39.768;2.722;2023-04-26T09:27:37;101309.78;;;20.55;80.13
54248;BME280;40161;39.768;2.722;2023-04-26T09:30:08;101299.03;;;20.54;80.03
54248;BME280;40161;39.768;2.722;2023-04-26T09:35:36;101310.13;;;20.84;79.02
54248;BME280;40161;39.768;2.722;2023-04-26T09:38:04;101319.94;;;20.96;78.46
54248;BME280;40161;39.768;2.722;2023-04-26T09:40:32;101293.41;;;20.84;77.67
54248;BME280;40161;39.768;2.722;2023-04-26T09:43:12;101289.28;;;20.93;77.09
54248;BME280;40161;39.768;2.722;2023-04-26T09:45:49;101286.31;;;21.03;77.49
54248;BME280;40161;39.768;2.722;2023-04-26T09:48:33;101312.41;;;21.17;76.60
54248;BME280;40161;39.768;2.722;2023-04-26T09:53:40;101334.84;;;21.33;75.76
54248;BME280;40161;39.768;2.722;2023-04-26T09:56:17;101330.06;;;21.33;74.74
54248;BME280;40161;39.768;2.722;2023-04-26T10:01:13;101342.69;;;21.42;74.14
54248;BME280;40161;39.768;2.722;2023-04-26T10:03:39;101320.06;;;21.36;74.44
54248;BME280;40161;39.768;2.722;2023-04-26T10:06:06;101315.69;;;21.35;74.06
54248;BME280;40161;39.768;2.722;2023-04-26T10:08:32;101327.09;;;21.44;73.10
54248;BME280;40161;39.768;2.722;2023-04-26T10:10:58;101312.50;;;21.33;72.94
54248;BME280;40161;39.768;2.722;2023-04-26T10:13:24;101304.09;;;21.37;72.56
54248;BME280;40161;39.768;2.722;2023-04-26T10:15:51;101317.75;;;21.54;72.15
54248;BME280;40161;39.768;2.722;2023-04-26T10:18:17;101262.53;;;21.19;72.09
54248;BME280;40161;39.768;2.722;2023-04-26T10:20:45;101323.03;;;21.49;71.38
54248;BME280;40161;39.768;2.722;2023-04-26T10:23:18;101257.56;;;21.06;71.60
54248;BME280;40161;39.768;2.722;2023-04-26T10:25:46;101249.00;;;21.17;71.65
54248;BME280;40161;39.768;2.722;2023-04-26T10:28:11;101316.47;;;21.59;71.34
54248;BME280;40161;39.768;2.722;2023-04-26T10:31:03;101312.81;;;21.62;70.96
54248;BME280;40161;39.768;2.722;2023-04-26T10:33:30;101309.09;;;21.69;70.59
54248;BME280;40161;39.768;2.722;2023-04-26T10:39:18;101312.69;;;21.89;69.96
54248;BME280;40161;39.768;2.722;2023-04-26T10:41:49;101299.91;;;21.88;69.67
54248;BME280;40161;39.768;2.722;2023-04-26T10:44:37;101322.78;;;22.03;69.41
54248;BME280;40161;39.768;2.722;2023-04-26T10:47:05;101306.78;;;22.03;68.92
54248;BME280;40161;39.768;2.722;2023-04-26T10:49:42;101270.13;;;21.81;68.07
54248;BME280;40161;39.768;2.722;2023-04-26T10:52:11;101310.88;;;22.19;68.89
54248;BME280;40161;39.768;2.722;2023-04-26T10:54:59;101306.28;;;22.28;67.71
54248;BME280;40161;39.768;2.722;2023-04-26T10:57:45;101315.28;;;22.36;67.38
54248;BME280;40161;39.768;2.722;2023-04-26T11:02:58;101302.38;;;22.42;66.67
54248;BME280;40161;39.768;2.722;2023-04-26T11:05:33;101307.66;;;22.57;67.02
54248;BME280;40161;39.768;2.722;2023-04-26T11:08:39;101301.47;;;22.65;66.18
54248;BME280;40161;39.768;2.722;2023-04-26T11:11:05;101298.50;;;22.72;65.97
54248;BME280;40161;39.768;2.722;2023-04-26T11:13:40;101282.31;;;22.64;64.85
54248;BME280;40161;39.768;2.722;2023-04-26T11:16:08;101288.34;;;22.62;65.23
54248;BME280;40161;39.768;2.722;2023-04-26T11:18:34;101290.97;;;22.69;64.60
54248;BME280;40161;39.768;2.722;2023-04-26T11:21:00;101283.34;;;22.70;64.62
54248;BME280;40161;39.768;2.722;2023-04-26T11:23:28;101288.00;;;22.77;64.06
54248;BME280;40161;39.768;2.722;2023-04-26T11:25:58;101284.69;;;22.82;63.26
54248;BME280;40161;39.768;2.722;2023-04-26T11:28:24;101256.78;;;22.62;63.38
54248;BME280;40161;39.768;2.722;2023-04-26T11:30:50;101267.28;;;22.74;62.38
54248;BME280;40161;39.768;2.722;2023-04-26T11:33:18;101272.59;;;22.85;62.49
54248;BME280;40161;39.768;2.722;2023-04-26T11:35:45;101244.09;;;22.73;61.57
54248;BME280;40161;39.768;2.722;2023-04-26T11:38:12;101263.69;;;22.90;60.41
54248;BME280;40161;39.768;2.722;2023-04-26T11:40:38;101263.53;;;22.97;60.22
54248;BME280;40161;39.768;2.722;2023-04-26T11:43:04;101273.31;;;23.05;59.51
54248;BME280;40161;39.768;2.722;2023-04-26T11:45:34;101250.94;;;22.89;59.63
54248;BME280;40161;39.768;2.722;2023-04-26T11:48:01;101249.03;;;23.02;59.75
54248;BME280;40161;39.768;2.722;2023-04-26T11:50:28;101235.56;;;22.97;59.81
54248;BME280;40161;39.768;2.722;2023-04-26T11:52:55;101267.38;;;23.19;59.90
54248;BME280;40161;39.768;2.722;2023-04-26T11:55:31;101267.50;;;23.29;59.92
54248;BME280;40161;39.768;2.722;2023-04-26T11:58:08;101260.44;;;23.24;59.12
54248;BME280;40161;39.768;2.722;2023-04-26T12:00:34;101267.41;;;23.32;59.70
54248;BME280;40161;39.768;2.722;2023-04-26T12:03:04;101219.81;;;23.03;59.36
54248;BME280;40161;39.768;2.722;2023-04-26T12:05:35;101238.31;;;23.13;59.71
54248;BME280;40161;39.768;2.722;2023-04-26T12:08:01;101210.53;;;22.90;59.88
54248;BME280;40161;39.768;2.722;2023-04-26T12:10:37;101195.16;;;22.65;60.02
54248;BME280;40161;39.768;2.722;2023-04-26T12:13:03;101265.84;;;23.31;60.15
54248;BME280;40161;39.768;2.722;2023-04-26T12:15:32;101258.91;;;23.36;59.65
54248;BME280;40161;39.768;2.722;2023-04-26T12:18:05;101264.91;;;23.21;59.64
54248;BME280;40161;39.768;2.722;2023-04-26T12:20:34;101242.97;;;23.04;60.58
54248;BME280;40161;39.768;2.722;2023-04-26T12:23:02;101243.16;;;22.96;59.98
54248;BME280;40161;39.768;2.722;2023-04-26T12:25:28;101231.97;;;22.96;60.13
54248;BME280;40161;39.768;2.722;2023-04-26T12:27:54;101253.88;;;23.14;60.20
54248;BME280;40161;39.768;2.722;2023-04-26T12:30:20;101268.16;;;23.20;60.67
54248;BME280;40161;39.768;2.722;2023-04-26T12:32:46;101247.59;;;23.10;60.79
54248;BME280;40161;39.768;2.722;2023-04-26T12:35:11;101253.00;;;23.17;60.83
54248;BME280;40161;39.768;2.722;2023-04-26T12:37:37;101210.88;;;22.92;60.68
54248;BME280;40161;39.768;2.722;2023-04-26T12:40:03;101259.41;;;23.18;59.98
54248;BME280;40161;39.768;2.722;2023-04-26T12:42:31;101238.75;;;23.12;60.40
54248;BME280;40161;39.768;2.722;2023-04-26T12:44:56;101242.34;;;23.12;59.85
54248;BME280;40161;39.768;2.722;2023-04-26T12:47:22;101228.44;;;23.09;59.57
54248;BME280;40161;39.768;2.722;2023-04-26T14:15:00;101226.28;;;23.58;56.28
54248;BME280;40161;39.768;2.722;2023-04-26T14:17:31;101215.59;;;23.40;55.63
54248;BME280;40161;39.768;2.722;2023-04-26T14:38:27;101195.06;;;23.73;55.90
54248;BME280;40161;39.768;2.722;2023-04-26T14:40:52;101165.94;;;23.70;56.01
54248;BME280;40161;39.768;2.722;2023-04-26T14:43:18;101186.03;;;23.81;55.38
54248;BME280;40161;39.768;2.722;2023-04-26T14:45:43;101182.09;;;23.91;55.16
54248;BME280;40161;39.768;2.722;2023-04-26T15:37:57;101155.97;;;23.69;55.85
54248;BME280;40161;39.768;2.722;2023-04-26T15:40:23;101147.63;;;23.65;55.28
54248;BME280;40161;39.768;2.722;2023-04-26T15:42:49;101149.31;;;23.63;55.73
54248;BME280;40161;39.768;2.722;2023-04-26T15:50:57;101122.97;;;23.48;55.33
54248;BME280;40161;39.768;2.722;2023-04-26T15:53:23;101136.97;;;23.48;55.18
54248;BME280;40161;39.768;2.722;2023-04-26T15:56:16;101142.69;;;23.57;55.57
54248;BME280;40161;39.768;2.722;2023-04-26T19:11:19;101201.00;;;20.32;67.20
54248;BME280;40161;39.768;2.722;2023-04-26T19:13:45;101182.44;;;20.22;66.99
54248;BME280;40161;39.768;2.722;2023-04-26T19:16:10;101208.47;;;20.38;66.52
54248;BME280;40161;39.768;2.722;2023-04-26T21:39:55;101299.13;;;19.03;68.11
